sensor_id;sensor_type;location;lat;lon;timestamp;P1;durP1;ratioP1;P2;durP2;ratioP2
23588;SDS011;11972;48.078;11.876;2023-05-03T00:02:10;9.80;;;8.52;;
23588;SDS011;11972;48.078;11.876;2023-05-03T00:06:14;8.85;;;7.95;;
23588;SDS011;11972;48.078;11.876;2023-05-03T00:10:15;8.77;;;7.80;;
23588;SDS011;11972;48.078;11.876;2023-05-03T00:14:15;10.65;;;8.02;;
23588;SDS011;11972;48.078;11.876;2023-05-03T00:18:16;8.57;;;7.78;;
23588;SDS011;11972;48.078;11.876;2023-05-03T00:22:16;8.70;;;7.90;;
23588;SDS011;11972;48.078;11.876;2023-05-03T00:26:17;9.13;;;7.30;;
23588;SDS011;11972;48.078;11.876;2023-05-03T00:30:17;8.20;;;7.40;;
23588;SDS011;11972;48.078;11.876;2023-05-03T00:34:18;8.13;;;7.35;;
23588;SDS011;11972;48.078;11.876;2023-05-03T00:38:18;7.88;;;7.18;;
23588;SDS011;11972;48.078;11.876;2023-05-03T00:42:18;7.68;;;6.97;;
23588;SDS011;11972;48.078;11.876;2023-05-03T00:46:19;7.57;;;6.70;;
23588;SDS011;11972;48.078;11.876;2023-05-03T00:50:19;7.40;;;6.70;;
23588;SDS011;11972;48.078;11.876;2023-05-03T00:54:21;6.93;;;6.22;;
23588;SDS011;11972;48.078;11.876;2023-05-03T00:58:22;7.65;;;6.70;;
23588;SDS011;11972;48.078;11.876;2023-05-03T01:02:24;6.63;;;6.03;;
23588;SDS011;11972;48.078;11.876;2023-05-03T01:15:02;18.98;;;13.77;;
23588;SDS011;11972;48.078;11.876;2023-05-03T01:19:13;7.60;;;6.90;;
23588;SDS011;11972;48.078;11.876;2023-05-03T01:23:35;14.07;;;10.80;;
23588;SDS011;11972;48.078;11.876;2023-05-03T01:27:41;13.10;;;10.55;;
23588;SDS011;11972;48.078;11.876;2023-05-03T01:31:48;8.05;;;7.28;;
23588;SDS011;11972;48.078;11.876;2023-05-03T01:40:10;8.10;;;6.63;;
23588;SDS011;11972;48.078;11.876;2023-05-03T01:44:15;8.68;;;7.88;;
23588;SDS011;11972;48.078;11.876;2023-05-03T01:48:17;6.53;;;5.93;;
23588;SDS011;11972;48.078;11.876;2023-05-03T01:52:18;7.35;;;6.70;;
23588;SDS011;11972;48.078;11.876;2023-05-03T01:56:19;7.38;;;6.72;;
23588;SDS011;11972;48.078;11.876;2023-05-03T02:00:20;5.93;;;5.40;;
23588;SDS011;11972;48.078;11.876;2023-05-03T02:04:21;6.30;;;5.80;;
23588;SDS011;11972;48.078;11.876;2023-05-03T02:08:21;7.20;;;6.50;;
23588;SDS011;11972;48.078;11.876;2023-05-03T02:12:21;6.40;;;5.80;;
23588;SDS011;11972;48.078;11.876;2023-05-03T02:16:22;6.70;;;5.90;;
23588;SDS011;11972;48.078;11.876;2023-05-03T02:20:22;6.13;;;5.53;;
23588;SDS011;11972;48.078;11.876;2023-05-03T02:24:22;6.57;;;6.05;;
23588;SDS011;11972;48.078;11.876;2023-05-03T02:28:23;11.23;;;8.43;;
23588;SDS011;11972;48.078;11.876;2023-05-03T02:32:23;7.05;;;6.30;;
23588;SDS011;11972;48.078;11.876;2023-05-03T02:36:24;7.70;;;7.00;;
23588;SDS011;11972;48.078;11.876;2023-05-03T02:40:25;5.70;;;5.20;;
23588;SDS011;11972;48.078;11.876;2023-05-03T02:44:25;6.32;;;5.82;;
23588;SDS011;11972;48.078;11.876;2023-05-03T02:48:26;6.40;;;5.90;;
23588;SDS011;11972;48.078;11.876;2023-05-03T02:52:26;6.00;;;5.40;;
23588;SDS011;11972;48.078;11.876;2023-05-03T02:56:27;6.32;;;5.82;;
23588;SDS011;11972;48.078;11.876;2023-05-03T03:00:27;6.00;;;5.50;;
23588;SDS011;11972;48.078;11.876;2023-05-03T03:04:28;6.03;;;5.53;;
23588;SDS011;11972;48.078;11.876;2023-05-03T03:08:28;7.40;;;5.35;;
23588;SDS011;11972;48.078;11.876;2023-05-03T03:12:28;7.80;;;5.40;;
23588;SDS011;11972;48.078;11.876;2023-05-03T03:16:29;6.38;;;5.20;;
23588;SDS011;11972;48.078;11.876;2023-05-03T03:20:29;7.18;;;5.28;;
23588;SDS011;11972;48.078;11.876;2023-05-03T03:24:30;7.85;;;5.40;;
23588;SDS011;11972;48.078;11.876;2023-05-03T03:28:30;5.90;;;5.40;;
23588;SDS011;11972;48.078;11.876;2023-05-03T03:32:30;6.30;;;5.80;;
23588;SDS011;11972;48.078;11.876;2023-05-03T03:36:31;6.30;;;5.80;;
23588;SDS011;11972;48.078;11.876;2023-05-03T03:40:31;6.80;;;6.20;;
23588;SDS011;11972;48.078;11.876;2023-05-03T03:44:32;7.07;;;6.38;;
23588;SDS011;11972;48.078;11.876;2023-05-03T03:48:32;6.07;;;5.55;;
23588;SDS011;11972;48.078;11.876;2023-05-03T03:52:32;5.43;;;5.03;;
23588;SDS011;11972;48.078;11.876;2023-05-03T03:56:33;7.60;;;5.90;;
23588;SDS011;11972;48.078;11.876;2023-05-03T04:00:34;6.22;;;5.57;;
23588;SDS011;11972;48.078;11.876;2023-05-03T04:04:37;6.50;;;5.90;;
23588;SDS011;11972;48.078;11.876;2023-05-03T04:08:37;6.38;;;5.88;;
23588;SDS011;11972;48.078;11.876;2023-05-03T04:12:38;6.55;;;5.80;;
23588;SDS011;11972;48.078;11.876;2023-05-03T04:16:38;6.25;;;5.57;;
23588;SDS011;11972;48.078;11.876;2023-05-03T04:20:38;8.93;;;5.65;;
23588;SDS011;11972;48.078;11.876;2023-05-03T04:24:39;5.68;;;5.18;;
23588;SDS011;11972;48.078;11.876;2023-05-03T04:28:39;5.65;;;5.15;;
23588;SDS011;11972;48.078;11.876;2023-05-03T04:32:40;5.85;;;5.30;;
23588;SDS011;11972;48.078;11.876;2023-05-03T04:36:41;6.50;;;5.25;;
23588;SDS011;11972;48.078;11.876;2023-05-03T04:40:41;6.20;;;5.60;;
23588;SDS011;11972;48.078;11.876;2023-05-03T04:44:42;6.38;;;5.85;;
23588;SDS011;11972;48.078;11.876;2023-05-03T04:48:43;5.68;;;5.25;;
23588;SDS011;11972;48.078;11.876;2023-05-03T04:52:44;6.28;;;5.68;;
23588;SDS011;11972;48.078;11.876;2023-05-03T04:56:44;5.70;;;5.30;;
23588;SDS011;11972;48.078;11.876;2023-05-03T05:00:44;5.73;;;5.20;;
23588;SDS011;11972;48.078;11.876;2023-05-03T05:04:45;5.90;;;5.40;;
23588;SDS011;11972;48.078;11.876;2023-05-03T05:08:45;6.38;;;5.88;;
23588;SDS011;11972;48.078;11.876;2023-05-03T05:12:46;5.60;;;5.10;;
23588;SDS011;11972;48.078;11.876;2023-05-03T05:16:46;6.20;;;5.70;;
23588;SDS011;11972;48.078;11.876;2023-05-03T05:20:46;5.70;;;5.30;;
23588;SDS011;11972;48.078;11.876;2023-05-03T05:24:47;7.25;;;6.70;;
23588;SDS011;11972;48.078;11.876;2023-05-03T05:28:47;6.55;;;5.95;;
23588;SDS011;11972;48.078;11.876;2023-05-03T05:32:47;6.05;;;5.60;;
23588;SDS011;11972;48.078;11.876;2023-05-03T05:36:48;6.10;;;5.65;;
23588;SDS011;11972;48.078;11.876;2023-05-03T05:40:49;6.65;;;6.15;;
23588;SDS011;11972;48.078;11.876;2023-05-03T05:44:49;6.32;;;5.82;;
23588;SDS011;11972;48.078;11.876;2023-05-03T05:48:51;6.40;;;5.80;;
23588;SDS011;11972;48.078;11.876;2023-05-03T05:52:51;6.20;;;5.75;;
23588;SDS011;11972;48.078;11.876;2023-05-03T05:56:52;6.40;;;5.72;;
23588;SDS011;11972;48.078;11.876;2023-05-03T06:00:56;7.10;;;6.47;;
23588;SDS011;11972;48.078;11.876;2023-05-03T06:04:57;5.68;;;5.28;;
23588;SDS011;11972;48.078;11.876;2023-05-03T06:08:58;5.28;;;4.88;;
23588;SDS011;11972;48.078;11.876;2023-05-03T06:12:58;5.80;;;5.37;;
23588;SDS011;11972;48.078;11.876;2023-05-03T06:16:59;6.40;;;5.90;;
23588;SDS011;11972;48.078;11.876;2023-05-03T06:20:59;14.98;;;8.55;;
23588;SDS011;11972;48.078;11.876;2023-05-03T06:24:59;8.27;;;7.63;;
23588;SDS011;11972;48.078;11.876;2023-05-03T06:33:02;7.13;;;6.53;;
23588;SDS011;11972;48.078;11.876;2023-05-03T06:37:03;10.07;;;9.27;;
23588;SDS011;11972;48.078;11.876;2023-05-03T06:41:03;10.65;;;9.65;;
23588;SDS011;11972;48.078;11.876;2023-05-03T06:45:04;10.48;;;9.32;;
23588;SDS011;11972;48.078;11.876;2023-05-03T06:49:05;11.18;;;10.07;;
23588;SDS011;11972;48.078;11.876;2023-05-03T06:53:05;11.77;;;10.60;;
23588;SDS011;11972;48.078;11.876;2023-05-03T06:57:06;11.68;;;10.48;;
23588;SDS011;11972;48.078;11.876;2023-05-03T07:01:06;12.25;;;10.90;;
23588;SDS011;11972;48.078;11.876;2023-05-03T07:05:07;12.85;;;11.43;;
23588;SDS011;11972;48.078;11.876;2023-05-03T07:09:07;12.07;;;10.40;;
23588;SDS011;11972;48.078;11.876;2023-05-03T07:13:08;12.52;;;11.23;;
23588;SDS011;11972;48.078;11.876;2023-05-03T07:17:09;11.70;;;10.50;;
23588;SDS011;11972;48.078;11.876;2023-05-03T07:21:09;12.55;;;10.68;;
23588;SDS011;11972;48.078;11.876;2023-05-03T07:25:09;11.18;;;10.10;;
23588;SDS011;11972;48.078;11.876;2023-05-03T07:29:11;12.25;;;9.95;;
23588;SDS011;11972;48.078;11.876;2023-05-03T07:33:11;11.25;;;10.15;;
23588;SDS011;11972;48.078;11.876;2023-05-03T07:37:11;9.57;;;8.67;;
23588;SDS011;11972;48.078;11.876;2023-05-03T07:41:12;12.40;;;9.93;;
23588;SDS011;11972;48.078;11.876;2023-05-03T07:45:12;11.85;;;10.05;;
23588;SDS011;11972;48.078;11.876;2023-05-03T07:49:12;9.38;;;8.57;;
23588;SDS011;11972;48.078;11.876;2023-05-03T07:53:13;9.25;;;8.35;;
23588;SDS011;11972;48.078;11.876;2023-05-03T07:57:13;10.13;;;9.13;;
23588;SDS011;11972;48.078;11.876;2023-05-03T08:01:15;10.80;;;9.70;;
23588;SDS011;11972;48.078;11.876;2023-05-03T08:05:15;9.27;;;8.37;;
23588;SDS011;11972;48.078;11.876;2023-05-03T08:09:16;8.80;;;8.00;;
23588;SDS011;11972;48.078;11.876;2023-05-03T08:13:17;8.00;;;7.40;;
23588;SDS011;11972;48.078;11.876;2023-05-03T08:17:18;15.33;;;14.03;;
23588;SDS011;11972;48.078;11.876;2023-05-03T08:21:18;9.60;;;8.82;;
23588;SDS011;11972;48.078;11.876;2023-05-03T08:25:19;6.70;;;6.20;;
23588;SDS011;11972;48.078;11.876;2023-05-03T08:29:19;7.00;;;6.40;;
23588;SDS011;11972;48.078;11.876;2023-05-03T08:33:20;6.68;;;6.10;;
23588;SDS011;11972;48.078;11.876;2023-05-03T08:37:20;6.87;;;6.37;;
23588;SDS011;11972;48.078;11.876;2023-05-03T08:41:26;6.82;;;6.28;;
23588;SDS011;11972;48.078;11.876;2023-05-03T08:45:28;7.63;;;7.13;;
23588;SDS011;11972;48.078;11.876;2023-05-03T08:49:32;8.35;;;7.65;;
23588;SDS011;11972;48.078;11.876;2023-05-03T08:53:34;8.52;;;7.82;;
23588;SDS011;11972;48.078;11.876;2023-05-03T08:57:34;7.40;;;6.80;;
23588;SDS011;11972;48.078;11.876;2023-05-03T09:01:35;8.10;;;7.45;;
23588;SDS011;11972;48.078;11.876;2023-05-03T09:05:36;7.85;;;7.25;;
23588;SDS011;11972;48.078;11.876;2023-05-03T09:09:42;7.85;;;7.32;;
23588;SDS011;11972;48.078;11.876;2023-05-03T09:13:43;7.03;;;6.53;;
23588;SDS011;11972;48.078;11.876;2023-05-03T09:17:43;6.68;;;6.18;;
23588;SDS011;11972;48.078;11.876;2023-05-03T09:21:44;6.77;;;6.17;;
23588;SDS011;11972;48.078;11.876;2023-05-03T09:25:48;5.60;;;5.13;;
23588;SDS011;11972;48.078;11.876;2023-05-03T09:29:51;6.15;;;5.75;;
23588;SDS011;11972;48.078;11.876;2023-05-03T09:33:52;6.00;;;5.60;;
23588;SDS011;11972;48.078;11.876;2023-05-03T09:37:53;6.67;;;6.17;;
23588;SDS011;11972;48.078;11.876;2023-05-03T09:41:53;6.10;;;5.60;;
23588;SDS011;11972;48.078;11.876;2023-05-03T09:46:12;5.95;;;5.53;;
23588;SDS011;11972;48.078;11.876;2023-05-03T09:50:13;5.95;;;5.45;;
23588;SDS011;11972;48.078;11.876;2023-05-03T09:54:13;5.68;;;5.28;;
23588;SDS011;11972;48.078;11.876;2023-05-03T09:58:14;5.55;;;5.15;;
23588;SDS011;11972;48.078;11.876;2023-05-03T10:02:17;6.05;;;5.65;;
23588;SDS011;11972;48.078;11.876;2023-05-03T10:06:22;5.55;;;5.15;;
23588;SDS011;11972;48.078;11.876;2023-05-03T10:10:26;6.18;;;5.63;;
23588;SDS011;11972;48.078;11.876;2023-05-03T10:14:31;7.28;;;6.60;;
23588;SDS011;11972;48.078;11.876;2023-05-03T10:18:31;6.20;;;5.70;;
23588;SDS011;11972;48.078;11.876;2023-05-03T10:27:05;4.63;;;4.32;;
23588;SDS011;11972;48.078;11.876;2023-05-03T10:31:31;4.22;;;3.92;;
23588;SDS011;11972;48.078;11.876;2023-05-03T10:35:50;4.03;;;3.70;;
23588;SDS011;11972;48.078;11.876;2023-05-03T10:39:52;4.80;;;4.30;;
23588;SDS011;11972;48.078;11.876;2023-05-03T10:43:52;4.20;;;3.90;;
23588;SDS011;11972;48.078;11.876;2023-05-03T10:56:47;2.50;;;2.30;;
23588;SDS011;11972;48.078;11.876;2023-05-03T11:00:48;3.25;;;2.97;;
23588;SDS011;11972;48.078;11.876;2023-05-03T11:04:50;2.35;;;2.10;;
23588;SDS011;11972;48.078;11.876;2023-05-03T11:08:52;3.17;;;2.80;;
23588;SDS011;11972;48.078;11.876;2023-05-03T11:12:52;7.40;;;6.70;;
23588;SDS011;11972;48.078;11.876;2023-05-03T11:16:52;7.95;;;7.35;;
23588;SDS011;11972;48.078;11.876;2023-05-03T11:20:56;6.22;;;5.70;;
23588;SDS011;11972;48.078;11.876;2023-05-03T11:24:56;7.70;;;6.82;;
23588;SDS011;11972;48.078;11.876;2023-05-03T11:28:56;6.70;;;6.20;;
23588;SDS011;11972;48.078;11.876;2023-05-03T11:32:57;11.30;;;10.18;;
23588;SDS011;11972;48.078;11.876;2023-05-03T11:36:58;9.88;;;9.07;;
23588;SDS011;11972;48.078;11.876;2023-05-03T11:40:59;7.93;;;7.30;;
23588;SDS011;11972;48.078;11.876;2023-05-03T11:45:08;6.45;;;6.03;;
23588;SDS011;11972;48.078;11.876;2023-05-03T11:49:08;5.28;;;4.88;;
23588;SDS011;11972;48.078;11.876;2023-05-03T11:53:09;23.17;;;15.13;;
23588;SDS011;11972;48.078;11.876;2023-05-03T11:57:11;5.90;;;5.30;;
23588;SDS011;11972;48.078;11.876;2023-05-03T12:01:12;2.50;;;2.40;;
23588;SDS011;11972;48.078;11.876;2023-05-03T12:05:13;3.78;;;2.60;;
23588;SDS011;11972;48.078;11.876;2023-05-03T12:09:14;2.53;;;2.38;;
23588;SDS011;11972;48.078;11.876;2023-05-03T12:13:25;3.95;;;2.78;;
23588;SDS011;11972;48.078;11.876;2023-05-03T12:17:39;13.30;;;9.80;;
23588;SDS011;11972;48.078;11.876;2023-05-03T12:21:44;3.60;;;3.30;;
23588;SDS011;11972;48.078;11.876;2023-05-03T12:25:46;2.60;;;2.40;;
23588;SDS011;11972;48.078;11.876;2023-05-03T12:29:46;2.87;;;2.67;;
23588;SDS011;11972;48.078;11.876;2023-05-03T12:33:47;3.45;;;3.13;;
23588;SDS011;11972;48.078;11.876;2023-05-03T12:37:47;3.93;;;3.63;;
23588;SDS011;11972;48.078;11.876;2023-05-03T12:41:48;3.72;;;3.38;;
23588;SDS011;11972;48.078;11.876;2023-05-03T12:45:48;2.80;;;2.60;;
23588;SDS011;11972;48.078;11.876;2023-05-03T12:49:48;2.97;;;2.67;;
23588;SDS011;11972;48.078;11.876;2023-05-03T12:53:49;3.40;;;3.20;;
23588;SDS011;11972;48.078;11.876;2023-05-03T12:57:50;3.33;;;3.13;;
23588;SDS011;11972;48.078;11.876;2023-05-03T13:01:50;4.30;;;3.90;;
23588;SDS011;11972;48.078;11.876;2023-05-03T13:05:50;3.53;;;3.20;;
23588;SDS011;11972;48.078;11.876;2023-05-03T13:09:51;3.40;;;3.10;;
23588;SDS011;11972;48.078;11.876;2023-05-03T13:13:51;4.70;;;4.27;;
23588;SDS011;11972;48.078;11.876;2023-05-03T13:17:51;10.90;;;8.03;;
23588;SDS011;11972;48.078;11.876;2023-05-03T13:21:52;4.05;;;3.80;;
23588;SDS011;11972;48.078;11.876;2023-05-03T13:25:53;7.38;;;6.78;;
23588;SDS011;11972;48.078;11.876;2023-05-03T13:29:56;3.42;;;3.22;;
23588;SDS011;11972;48.078;11.876;2023-05-03T13:33:56;14.60;;;10.47;;
23588;SDS011;11972;48.078;11.876;2023-05-03T13:37:56;8.03;;;7.33;;
23588;SDS011;11972;48.078;11.876;2023-05-03T13:41:57;5.90;;;5.40;;
23588;SDS011;11972;48.078;11.876;2023-05-03T13:46:00;4.82;;;4.53;;
23588;SDS011;11972;48.078;11.876;2023-05-03T13:50:01;4.85;;;4.45;;
23588;SDS011;11972;48.078;11.876;2023-05-03T13:54:03;5.15;;;4.70;;
23588;SDS011;11972;48.078;11.876;2023-05-03T13:58:04;5.43;;;5.03;;
23588;SDS011;11972;48.078;11.876;2023-05-03T14:02:04;4.70;;;4.40;;
23588;SDS011;11972;48.078;11.876;2023-05-03T14:06:05;5.82;;;5.32;;
23588;SDS011;11972;48.078;11.876;2023-05-03T14:10:07;4.90;;;4.55;;
23588;SDS011;11972;48.078;11.876;2023-05-03T14:14:09;4.95;;;4.65;;
23588;SDS011;11972;48.078;11.876;2023-05-03T14:18:09;5.97;;;5.57;;
23588;SDS011;11972;48.078;11.876;2023-05-03T14:22:10;4.93;;;4.50;;
23588;SDS011;11972;48.078;11.876;2023-05-03T14:26:10;4.50;;;4.20;;
23588;SDS011;11972;48.078;11.876;2023-05-03T14:30:11;4.70;;;4.20;;
23588;SDS011;11972;48.078;11.876;2023-05-03T14:34:12;4.13;;;3.70;;
23588;SDS011;11972;48.078;11.876;2023-05-03T14:38:12;3.90;;;3.60;;
23588;SDS011;11972;48.078;11.876;2023-05-03T14:42:13;3.58;;;3.38;;
23588;SDS011;11972;48.078;11.876;2023-05-03T14:46:14;4.80;;;4.43;;
23588;SDS011;11972;48.078;11.876;2023-05-03T14:50:15;3.85;;;3.55;;
23588;SDS011;11972;48.078;11.876;2023-05-03T14:54:15;3.72;;;3.42;;
23588;SDS011;11972;48.078;11.876;2023-05-03T14:58:19;3.22;;;3.03;;
23588;SDS011;11972;48.078;11.876;2023-05-03T15:02:22;3.63;;;3.33;;
23588;SDS011;11972;48.078;11.876;2023-05-03T15:06:24;3.90;;;3.60;;
23588;SDS011;11972;48.078;11.876;2023-05-03T15:10:27;2.60;;;2.40;;
23588;SDS011;11972;48.078;11.876;2023-05-03T15:14:29;2.87;;;2.67;;
23588;SDS011;11972;48.078;11.876;2023-05-03T15:18:29;2.72;;;2.42;;
23588;SDS011;11972;48.078;11.876;2023-05-03T15:22:30;2.67;;;2.47;;
23588;SDS011;11972;48.078;11.876;2023-05-03T15:26:30;2.30;;;2.10;;
23588;SDS011;11972;48.078;11.876;2023-05-03T15:30:31;2.40;;;2.20;;
23588;SDS011;11972;48.078;11.876;2023-05-03T15:34:31;2.50;;;2.20;;
23588;SDS011;11972;48.078;11.876;2023-05-03T15:38:51;2.83;;;2.65;;
23588;SDS011;11972;48.078;11.876;2023-05-03T15:42:51;2.97;;;2.77;;
23588;SDS011;11972;48.078;11.876;2023-05-03T15:46:51;3.33;;;3.10;;
23588;SDS011;11972;48.078;11.876;2023-05-03T15:50:52;3.15;;;2.60;;
23588;SDS011;11972;48.078;11.876;2023-05-03T15:54:52;3.40;;;3.10;;
23588;SDS011;11972;48.078;11.876;2023-05-03T15:58:54;2.90;;;2.70;;
23588;SDS011;11972;48.078;11.876;2023-05-03T16:02:55;2.50;;;2.30;;
23588;SDS011;11972;48.078;11.876;2023-05-03T16:06:56;5.40;;;2.97;;
23588;SDS011;11972;48.078;11.876;2023-05-03T16:10:57;2.70;;;2.50;;
23588;SDS011;11972;48.078;11.876;2023-05-03T16:14:57;2.50;;;2.30;;
23588;SDS011;11972;48.078;11.876;2023-05-03T16:18:58;2.90;;;2.37;;
23588;SDS011;11972;48.078;11.876;2023-05-03T16:22:58;2.30;;;2.10;;
23588;SDS011;11972;48.078;11.876;2023-05-03T16:26:59;2.10;;;1.90;;
23588;SDS011;11972;48.078;11.876;2023-05-03T16:31:01;2.08;;;1.98;;
23588;SDS011;11972;48.078;11.876;2023-05-03T16:35:01;2.27;;;2.00;;
23588;SDS011;11972;48.078;11.876;2023-05-03T16:39:02;2.00;;;1.83;;
23588;SDS011;11972;48.078;11.876;2023-05-03T16:43:03;2.45;;;2.10;;
23588;SDS011;11972;48.078;11.876;2023-05-03T16:47:03;2.22;;;2.13;;
23588;SDS011;11972;48.078;11.876;2023-05-03T16:51:05;1.75;;;1.65;;
23588;SDS011;11972;48.078;11.876;2023-05-03T16:55:05;2.40;;;2.20;;
23588;SDS011;11972;48.078;11.876;2023-05-03T16:59:06;2.78;;;2.58;;
23588;SDS011;11972;48.078;11.876;2023-05-03T17:03:07;3.38;;;2.70;;
23588;SDS011;11972;48.078;11.876;2023-05-03T17:07:07;5.47;;;4.80;;
23588;SDS011;11972;48.078;11.876;2023-05-03T17:11:08;6.37;;;5.80;;
23588;SDS011;11972;48.078;11.876;2023-05-03T17:15:11;6.57;;;6.00;;
23588;SDS011;11972;48.078;11.876;2023-05-03T17:19:12;5.28;;;4.97;;
23588;SDS011;11972;48.078;11.876;2023-05-03T17:23:12;7.63;;;5.20;;
23588;SDS011;11972;48.078;11.876;2023-05-03T17:27:12;4.63;;;4.33;;
23588;SDS011;11972;48.078;11.876;2023-05-03T17:31:13;5.13;;;4.73;;
23588;SDS011;11972;48.078;11.876;2023-05-03T17:35:13;4.90;;;4.50;;
23588;SDS011;11972;48.078;11.876;2023-05-03T17:39:13;4.63;;;4.22;;
23588;SDS011;11972;48.078;11.876;2023-05-03T17:43:14;5.80;;;5.30;;
23588;SDS011;11972;48.078;11.876;2023-05-03T17:47:17;3.95;;;3.45;;
23588;SDS011;11972;48.078;11.876;2023-05-03T17:51:18;3.58;;;3.38;;
23588;SDS011;11972;48.078;11.876;2023-05-03T17:55:18;4.03;;;3.80;;
23588;SDS011;11972;48.078;11.876;2023-05-03T17:59:18;3.50;;;3.20;;
23588;SDS011;11972;48.078;11.876;2023-05-03T18:03:18;3.97;;;3.13;;
23588;SDS011;11972;48.078;11.876;2023-05-03T18:07:19;3.80;;;3.40;;
23588;SDS011;11972;48.078;11.876;2023-05-03T18:11:19;3.67;;;3.40;;
23588;SDS011;11972;48.078;11.876;2023-05-03T18:15:20;3.80;;;3.60;;
23588;SDS011;11972;48.078;11.876;2023-05-03T18:19:20;3.28;;;2.97;;
23588;SDS011;11972;48.078;11.876;2023-05-03T18:23:21;3.35;;;3.15;;
23588;SDS011;11972;48.078;11.876;2023-05-03T18:27:21;4.30;;;3.67;;
23588;SDS011;11972;48.078;11.876;2023-05-03T18:31:22;6.72;;;5.13;;
23588;SDS011;11972;48.078;11.876;2023-05-03T18:35:22;3.95;;;3.63;;
23588;SDS011;11972;48.078;11.876;2023-05-03T18:39:23;6.47;;;4.10;;
23588;SDS011;11972;48.078;11.876;2023-05-03T18:43:23;3.50;;;3.20;;
23588;SDS011;11972;48.078;11.876;2023-05-03T18:47:23;4.70;;;3.63;;
23588;SDS011;11972;48.078;11.876;2023-05-03T18:51:24;6.17;;;5.40;;
23588;SDS011;11972;48.078;11.876;2023-05-03T18:55:24;6.07;;;5.10;;
23588;SDS011;11972;48.078;11.876;2023-05-03T18:59:24;4.95;;;4.65;;
23588;SDS011;11972;48.078;11.876;2023-05-03T19:03:28;4.72;;;3.35;;
23588;SDS011;11972;48.078;11.876;2023-05-03T19:07:28;4.15;;;3.55;;
23588;SDS011;11972;48.078;11.876;2023-05-03T19:11:29;5.60;;;4.00;;
23588;SDS011;11972;48.078;11.876;2023-05-03T19:15:29;4.90;;;3.70;;
23588;SDS011;11972;48.078;11.876;2023-05-03T19:19:30;3.67;;;3.40;;
23588;SDS011;11972;48.078;11.876;2023-05-03T19:23:30;4.07;;;3.70;;
23588;SDS011;11972;48.078;11.876;2023-05-03T19:27:31;4.20;;;3.90;;
23588;SDS011;11972;48.078;11.876;2023-05-03T19:31:31;4.65;;;3.63;;
23588;SDS011;11972;48.078;11.876;2023-05-03T19:35:36;4.10;;;3.80;;
23588;SDS011;11972;48.078;11.876;2023-05-03T19:39:37;4.55;;;4.15;;
23588;SDS011;11972;48.078;11.876;2023-05-03T19:43:38;5.30;;;4.57;;
23588;SDS011;11972;48.078;11.876;2023-05-03T19:47:39;4.72;;;4.32;;
23588;SDS011;11972;48.078;11.876;2023-05-03T19:51:39;4.73;;;4.33;;
23588;SDS011;11972;48.078;11.876;2023-05-03T19:55:39;7.03;;;5.57;;
23588;SDS011;11972;48.078;11.876;2023-05-03T19:59:40;6.60;;;5.90;;
23588;SDS011;11972;48.078;11.876;2023-05-03T20:03:41;5.43;;;4.93;;
23588;SDS011;11972;48.078;11.876;2023-05-03T20:07:41;7.32;;;6.30;;
23588;SDS011;11972;48.078;11.876;2023-05-03T20:11:41;8.50;;;7.70;;
23588;SDS011;11972;48.078;11.876;2023-05-03T20:15:42;10.00;;;9.00;;
23588;SDS011;11972;48.078;11.876;2023-05-03T20:19:42;11.57;;;9.55;;
23588;SDS011;11972;48.078;11.876;2023-05-03T20:23:43;11.93;;;9.32;;
23588;SDS011;11972;48.078;11.876;2023-05-03T20:27:44;10.10;;;8.65;;
23588;SDS011;11972;48.078;11.876;2023-05-03T20:31:45;9.93;;;9.02;;
23588;SDS011;11972;48.078;11.876;2023-05-03T20:35:45;9.05;;;8.25;;
23588;SDS011;11972;48.078;11.876;2023-05-03T20:39:46;9.70;;;8.57;;
23588;SDS011;11972;48.078;11.876;2023-05-03T20:43:46;9.52;;;8.63;;
23588;SDS011;11972;48.078;11.876;2023-05-03T20:47:46;9.95;;;8.55;;
23588;SDS011;11972;48.078;11.876;2023-05-03T20:51:47;10.13;;;9.05;;
23588;SDS011;11972;48.078;11.876;2023-05-03T20:55:53;9.27;;;8.48;;
23588;SDS011;11972;48.078;11.876;2023-05-03T20:59:54;11.38;;;10.25;;
23588;SDS011;11972;48.078;11.876;2023-05-03T21:03:54;9.80;;;8.80;;
23588;SDS011;11972;48.078;11.876;2023-05-03T21:07:55;9.68;;;8.65;;
23588;SDS011;11972;48.078;11.876;2023-05-03T21:11:56;9.02;;;8.23;;
23588;SDS011;11972;48.078;11.876;2023-05-03T21:15:56;9.70;;;8.90;;
23588;SDS011;11972;48.078;11.876;2023-05-03T21:19:57;9.15;;;8.35;;
23588;SDS011;11972;48.078;11.876;2023-05-03T21:23:57;9.95;;;9.05;;
23588;SDS011;11972;48.078;11.876;2023-05-03T21:27:57;10.93;;;9.82;;
23588;SDS011;11972;48.078;11.876;2023-05-03T21:31:58;10.27;;;9.20;;
23588;SDS011;11972;48.078;11.876;2023-05-03T21:35:58;10.97;;;9.80;;
23588;SDS011;11972;48.078;11.876;2023-05-03T21:39:59;11.05;;;9.95;;
23588;SDS011;11972;48.078;11.876;2023-05-03T21:43:59;11.32;;;10.30;;
23588;SDS011;11972;48.078;11.876;2023-05-03T21:48:00;12.80;;;11.50;;
23588;SDS011;11972;48.078;11.876;2023-05-03T21:52:04;11.88;;;10.65;;
23588;SDS011;11972;48.078;11.876;2023-05-03T21:56:05;11.63;;;10.43;;
23588;SDS011;11972;48.078;11.876;2023-05-03T22:00:05;11.73;;;10.63;;
23588;SDS011;11972;48.078;11.876;2023-05-03T22:04:06;12.07;;;10.88;;
23588;SDS011;11972;48.078;11.876;2023-05-03T22:08:07;13.52;;;12.23;;
23588;SDS011;11972;48.078;11.876;2023-05-03T22:12:08;13.60;;;12.25;;
23588;SDS011;11972;48.078;11.876;2023-05-03T22:16:09;13.82;;;12.10;;
23588;SDS011;11972;48.078;11.876;2023-05-03T22:20:11;13.35;;;11.95;;
23588;SDS011;11972;48.078;11.876;2023-05-03T22:24:11;15.85;;;12.88;;
23588;SDS011;11972;48.078;11.876;2023-05-03T22:28:12;14.45;;;12.98;;
23588;SDS011;11972;48.078;11.876;2023-05-03T22:32:12;26.90;;;20.10;;
23588;SDS011;11972;48.078;11.876;2023-05-03T22:36:13;17.40;;;14.93;;
23588;SDS011;11972;48.078;11.876;2023-05-03T22:40:13;19.70;;;14.48;;
23588;SDS011;11972;48.078;11.876;2023-05-03T22:44:14;17.98;;;15.07;;
23588;SDS011;11972;48.078;11.876;2023-05-03T22:48:14;36.15;;;26.30;;
23588;SDS011;11972;48.078;11.876;2023-05-03T22:52:14;18.20;;;15.68;;
23588;SDS011;11972;48.078;11.876;2023-05-03T22:56:15;39.60;;;27.60;;
23588;SDS011;11972;48.078;11.876;2023-05-03T23:00:15;49.88;;;34.97;;
23588;SDS011;11972;48.078;11.876;2023-05-03T23:04:16;30.42;;;23.33;;
23588;SDS011;11972;48.078;11.876;2023-05-03T23:08:16;20.17;;;16.15;;
23588;SDS011;11972;48.078;11.876;2023-05-03T23:12:16;24.67;;;19.25;;
23588;SDS011;11972;48.078;11.876;2023-05-03T23:16:17;15.32;;;13.75;;
23588;SDS011;11972;48.078;11.876;2023-05-03T23:20:19;24.92;;;20.98;;
23588;SDS011;11972;48.078;11.876;2023-05-03T23:24:19;18.70;;;15.23;;
23588;SDS011;11972;48.078;11.876;2023-05-03T23:28:21;18.92;;;15.35;;
23588;SDS011;11972;48.078;11.876;2023-05-03T23:32:21;17.58;;;15.25;;
23588;SDS011;11972;48.078;11.876;2023-05-03T23:36:22;15.75;;;14.25;;
23588;SDS011;11972;48.078;11.876;2023-05-03T23:40:22;15.00;;;12.57;;
23588;SDS011;11972;48.078;11.876;2023-05-03T23:44:22;15.98;;;13.93;;
23588;SDS011;11972;48.078;11.876;2023-05-03T23:48:23;15.35;;;13.05;;
23588;SDS011;11972;48.078;11.876;2023-05-03T23:52:23;13.48;;;11.38;;
23588;SDS011;11972;48.078;11.876;2023-05-03T23:56:23;16.00;;;10.90;;
